createdAt,value
2022-11-25T00:00:27.963Z,89.84
2022-11-25T00:04:06.036Z,90.04
2022-11-25T00:07:29.771Z,90.04
2022-11-25T00:10:55.470Z,89.26
2022-11-25T00:14:16.696Z,88.37
2022-11-25T00:17:31.885Z,89.83
2022-11-25T00:20:57.168Z,89.10
2022-11-25T00:24:20.342Z,87.50
2022-11-25T00:27:57.156Z,87.84
2022-11-25T00:31:14.385Z,88.19
2022-11-25T00:34:22.167Z,87.99
2022-11-25T00:37:34.637Z,88.59
2022-11-25T00:40:42.966Z,88.69
2022-11-25T00:44:03.356Z,88.20
2022-11-25T00:47:12.916Z,88.92
2022-11-25T00:50:17.640Z,88.27
2022-11-25T00:53:23.458Z,88.66
2022-11-25T00:56:33.245Z,88.85
2022-11-25T00:59:41.774Z,89.23
2022-11-25T01:02:52.140Z,89.05
2022-11-25T01:06:09.544Z,89.31
2022-11-25T01:09:18.657Z,90.80
2022-11-25T01:12:24.165Z,89.94
2022-11-25T01:15:46.812Z,90.44
2022-11-25T01:18:54.080Z,89.62
2022-11-25T01:22:11.791Z,90.42
2022-11-25T01:25:14.856Z,90.04
2022-11-25T01:28:17.704Z,91.01
2022-11-25T01:31:23.084Z,90.08
2022-11-25T01:34:31.918Z,89.77
2022-11-25T01:37:35.919Z,90.77
2022-11-25T01:40:38.602Z,90.56
2022-11-25T01:43:42.087Z,91.12
2022-11-25T01:46:59.426Z,91.50
2022-11-25T01:50:04.945Z,92.76
2022-11-25T01:53:12.476Z,91.77
2022-11-25T01:56:15.711Z,92.79
2022-11-25T01:59:18.853Z,93.40
2022-11-25T02:02:22.108Z,93.44
2022-11-25T02:05:33.972Z,93.88
2022-11-25T02:08:39.545Z,94.09
2022-11-25T02:11:45.008Z,94.04
2022-11-25T02:14:49.687Z,93.01
2022-11-25T02:17:52.457Z,93.19
2022-11-25T02:20:55.359Z,92.65
2022-11-25T02:24:06.265Z,92.14
2022-11-25T02:27:10.556Z,92.61
2022-11-25T02:30:13.742Z,91.92
2022-11-25T02:33:17.820Z,93.60
2022-11-25T02:36:23.704Z,93.28
2022-11-25T02:39:26.816Z,92.59
2022-11-25T02:42:31.473Z,91.95
2022-11-25T02:45:43.336Z,91.71
2022-11-25T02:49:07.944Z,91.69
2022-11-25T02:52:09.210Z,91.72
2022-11-25T02:55:11.884Z,92.24
2022-11-25T02:58:16.600Z,91.72
2022-11-25T03:01:21.090Z,92.70
2022-11-25T03:04:23.887Z,92.27
2022-11-25T03:07:26.557Z,93.34
2022-11-25T03:10:29.617Z,93.22
2022-11-25T03:13:33.753Z,93.31
2022-11-25T03:16:36.477Z,92.16
2022-11-25T03:19:39.223Z,91.70
2022-11-25T03:22:42.256Z,91.09
2022-11-25T03:25:45.027Z,90.76
2022-11-25T03:28:49.040Z,91.18
2022-11-25T03:31:51.967Z,92.00
2022-11-25T03:34:54.749Z,92.48
2022-11-25T03:37:57.449Z,92.22
2022-11-25T03:41:00.156Z,92.10
2022-11-25T03:44:04.175Z,91.88
2022-11-25T03:47:07.083Z,92.23
2022-11-25T03:50:11.979Z,92.14
2022-11-25T03:53:14.639Z,91.99
2022-11-25T03:56:17.304Z,92.45
2022-11-25T03:59:21.308Z,92.18
2022-11-25T04:02:24.068Z,92.02
2022-11-25T04:05:26.708Z,92.67
2022-11-25T04:08:29.316Z,92.10
2022-11-25T04:11:45.921Z,92.35
2022-11-25T04:14:49.894Z,91.73
2022-11-25T04:17:52.561Z,92.90
2022-11-25T04:20:55.291Z,91.55
2022-11-25T04:23:57.933Z,92.37
2022-11-25T04:27:00.631Z,93.12
2022-11-25T04:30:05.242Z,92.91
2022-11-25T04:33:08.047Z,93.19
2022-11-25T04:36:10.971Z,93.10
2022-11-25T04:39:13.640Z,93.29
2022-11-25T04:42:34.671Z,92.68
2022-11-25T04:46:06.473Z,92.24
2022-11-25T04:49:01.752Z,92.66
2022-11-25T04:52:04.527Z,92.93
2022-11-25T04:55:08.080Z,93.90
2022-11-25T04:58:11.594Z,92.19
2022-11-25T05:01:14.677Z,92.83
2022-11-25T05:04:17.279Z,92.71
2022-11-25T05:07:21.382Z,92.77
2022-11-25T05:10:24.291Z,92.85
2022-11-25T05:13:27.133Z,92.71
2022-11-25T05:16:31.188Z,92.11
2022-11-25T05:19:35.977Z,92.26
2022-11-25T05:22:42.261Z,92.29
2022-11-25T05:25:46.256Z,93.65
2022-11-25T05:28:51.011Z,92.62
2022-11-25T05:31:58.104Z,92.53
2022-11-25T05:35:01.787Z,91.09
2022-11-25T05:38:05.097Z,91.77
2022-11-25T05:41:11.313Z,90.64
2022-11-25T05:44:22.493Z,91.06
2022-11-25T05:47:28.926Z,91.46
2022-11-25T05:50:33.325Z,90.53
2022-11-25T05:53:39.038Z,91.66
2022-11-25T05:56:43.656Z,90.40
2022-11-25T05:59:47.950Z,90.73
2022-11-25T06:02:56.555Z,89.86
2022-11-25T06:06:03.444Z,90.25
2022-11-25T06:09:11.549Z,90.61
2022-11-25T06:12:19.859Z,90.73
2022-11-25T06:15:27.478Z,89.39
2022-11-25T06:18:36.977Z,90.23
2022-11-25T06:21:45.988Z,89.14
2022-11-25T06:25:01.851Z,90.37
2022-11-25T06:28:13.314Z,89.97
2022-11-25T06:31:30.663Z,89.78
2022-11-25T06:34:47.058Z,90.17
2022-11-25T06:37:55.974Z,90.13
2022-11-25T06:41:04.923Z,89.93
2022-11-25T06:44:30.538Z,89.97
2022-11-25T06:47:37.099Z,89.92
2022-11-25T06:50:50.718Z,89.99
2022-11-25T06:53:58.238Z,91.10
2022-11-25T06:57:05.495Z,91.25
2022-11-25T07:00:14.306Z,90.59
2022-11-25T07:03:21.771Z,91.79
2022-11-25T07:06:32.605Z,92.77
2022-11-25T07:09:43.288Z,92.99
2022-11-25T07:12:54.040Z,93.79
2022-11-25T07:16:05.644Z,93.17
2022-11-25T07:19:19.333Z,93.47
2022-11-25T07:22:36.169Z,93.10
2022-11-25T07:25:48.457Z,92.40
2022-11-25T07:28:56.015Z,92.64
2022-11-25T07:32:08.885Z,92.65
2022-11-25T07:35:18.736Z,92.38
2022-11-25T07:38:31.370Z,92.49
2022-11-25T07:41:43.779Z,93.17
2022-11-25T07:44:59.856Z,93.17
2022-11-25T07:48:10.996Z,93.48
2022-11-25T07:51:24.535Z,93.60
2022-11-25T07:54:34.735Z,94.13
2022-11-25T07:57:50.056Z,93.44
2022-11-25T08:00:57.571Z,93.66
2022-11-25T08:04:07.839Z,93.59
2022-11-25T08:07:15.674Z,93.06
2022-11-25T08:10:24.936Z,93.01
2022-11-25T08:13:33.596Z,94.07
2022-11-25T08:16:42.162Z,94.37
2022-11-25T08:19:50.841Z,94.58
2022-11-25T08:23:01.613Z,93.89
2022-11-25T08:26:13.475Z,94.20
2022-11-25T08:29:25.516Z,94.14
2022-11-25T08:32:35.175Z,93.57
2022-11-25T08:35:44.711Z,93.30
2022-11-25T08:38:56.546Z,94.04
2022-11-25T08:42:14.439Z,93.29
2022-11-25T08:45:21.940Z,93.71
2022-11-25T08:48:29.857Z,93.67
2022-11-25T08:51:42.689Z,94.10
2022-11-25T08:54:56.754Z,94.72
2022-11-25T08:58:10.539Z,95.28
2022-11-25T09:01:21.291Z,95.43
2022-11-25T09:04:29.671Z,95.87
2022-11-25T09:07:40.008Z,96.08
2022-11-25T09:10:55.008Z,95.78
2022-11-25T09:14:11.466Z,94.29
2022-11-25T09:17:19.757Z,93.84
2022-11-25T09:20:30.946Z,92.92
2022-11-25T09:23:39.361Z,92.51
2022-11-25T09:26:50.072Z,92.72
2022-11-25T09:30:02.196Z,91.53
2022-11-25T09:33:16.019Z,90.69
2022-11-25T09:36:29.354Z,90.67
2022-11-25T09:39:38.075Z,91.15
2022-11-25T09:43:09.024Z,91.18
2022-11-25T09:46:46.897Z,91.13
2022-11-25T09:50:13.966Z,91.44
2022-11-25T09:53:36.824Z,92.10
2022-11-25T09:56:53.103Z,92.08
2022-11-25T10:00:11.288Z,91.84
2022-11-25T10:03:36.860Z,91.64
2022-11-25T10:06:55.364Z,90.35
2022-11-25T10:10:09.669Z,90.16
2022-11-25T10:13:26.844Z,90.08
2022-11-25T10:16:38.473Z,90.19
2022-11-25T10:20:11.531Z,89.88
2022-11-25T10:23:28.697Z,89.25
2022-11-25T10:26:50.509Z,88.77
2022-11-25T10:30:05.936Z,87.59
2022-11-25T10:33:26.838Z,87.36
2022-11-25T10:36:39.943Z,87.88
2022-11-25T10:39:47.425Z,86.86
2022-11-25T10:42:53.712Z,86.97
2022-11-25T10:46:18.485Z,87.02
2022-11-25T10:56:52.589Z,87.79
2022-11-25T11:00:17.012Z,87.21
2022-11-25T11:03:32.455Z,87.67
2022-11-25T11:10:42.802Z,87.40
2022-11-25T11:13:52.178Z,86.37
2022-11-25T11:17:42.156Z,84.64
2022-11-25T11:21:14.073Z,84.00
2022-11-25T11:24:44.291Z,83.98
2022-11-25T11:28:10.801Z,83.12
2022-11-25T11:31:34.014Z,83.77
2022-11-25T11:39:12.663Z,86.44
2022-11-25T11:46:27.737Z,90.60
2022-11-25T11:53:53.464Z,93.69
2022-11-25T11:57:19.361Z,94.06
2022-11-25T12:01:02.678Z,95.13
2022-11-25T12:04:28.243Z,96.24
2022-11-25T12:07:47.596Z,96.67
2022-11-25T12:11:03.378Z,97.49
2022-11-25T12:14:15.359Z,97.63
2022-11-25T12:17:28.641Z,97.62
2022-11-25T12:20:57.990Z,98.31
2022-11-25T12:24:12.245Z,98.99
2022-11-25T12:27:25.800Z,98.72
2022-11-25T12:34:39.995Z,98.04
2022-11-25T12:38:08.690Z,98.61
2022-11-25T12:41:37.221Z,98.95
2022-11-25T12:45:06.531Z,99.88
2022-11-25T12:52:01.887Z,99.03
2022-11-25T12:55:25.955Z,98.62
2022-11-25T12:59:08.790Z,99.77
2022-11-25T13:02:58.419Z,99.40
2022-11-25T13:06:56.157Z,99.64
2022-11-25T13:10:49.000Z,99.07
2022-11-25T13:14:17.360Z,99.13
2022-11-25T13:17:58.419Z,99.71
2022-11-25T13:21:17.323Z,99.98
2022-11-25T13:28:38.936Z,100.00
2022-11-25T13:32:49.136Z,100.00
2022-11-25T13:39:51.422Z,99.08
2022-11-25T13:43:02.553Z,97.82
2022-11-25T13:46:42.169Z,97.14
2022-11-25T13:50:00.002Z,96.40
2022-11-25T13:53:10.167Z,96.03
2022-11-25T13:56:20.565Z,94.64
2022-11-25T13:59:44.114Z,93.45
2022-11-25T14:02:50.862Z,92.27
2022-11-25T14:06:13.318Z,91.73
2022-11-25T14:09:32.489Z,91.28
2022-11-25T14:13:11.416Z,90.55
2022-11-25T14:16:36.357Z,89.05
2022-11-25T14:20:06.728Z,89.03
2022-11-25T14:23:48.391Z,88.50
2022-11-25T14:26:58.129Z,86.98
2022-11-25T14:30:12.226Z,87.13
2022-11-25T14:33:26.251Z,85.83
2022-11-25T14:36:44.387Z,86.21
2022-11-25T14:40:01.694Z,85.16
2022-11-25T14:43:11.580Z,84.66
2022-11-25T14:46:22.024Z,84.48
2022-11-25T14:49:51.962Z,84.46
2022-11-25T14:53:12.898Z,83.57
2022-11-25T14:56:25.876Z,83.92
2022-11-25T14:59:40.817Z,84.40
2022-11-25T15:03:01.762Z,84.53
2022-11-25T15:06:09.301Z,83.90
2022-11-25T15:09:30.377Z,84.04
2022-11-25T15:12:48.032Z,83.42
2022-11-25T15:16:06.325Z,84.46
2022-11-25T15:19:22.045Z,84.54
2022-11-25T15:22:28.795Z,85.12
2022-11-25T15:25:35.816Z,84.83
2022-11-25T15:28:44.023Z,84.97
2022-11-25T15:31:53.917Z,85.65
2022-11-25T15:35:05.960Z,85.20
2022-11-25T15:38:21.804Z,85.25
2022-11-25T15:41:38.668Z,85.69
2022-11-25T15:44:53.317Z,85.63
2022-11-25T15:48:07.184Z,85.72
2022-11-25T15:51:30.296Z,85.44
2022-11-25T15:54:44.241Z,86.34
2022-11-25T15:58:00.243Z,86.75
2022-11-25T16:01:10.259Z,87.41
2022-11-25T16:04:24.355Z,87.50
2022-11-25T16:07:33.373Z,87.63
2022-11-25T16:10:57.832Z,88.10
2022-11-25T16:14:23.124Z,87.86
2022-11-25T16:17:35.287Z,87.80
2022-11-25T16:20:42.925Z,87.12
2022-11-25T16:23:53.048Z,87.09
2022-11-25T16:27:04.788Z,87.87
2022-11-25T16:30:23.599Z,88.27
2022-11-25T16:33:34.884Z,89.02
2022-11-25T16:36:45.165Z,89.60
2022-11-25T16:39:53.430Z,89.38
2022-11-25T16:43:01.215Z,89.74
2022-11-25T16:46:09.416Z,89.37
2022-11-25T16:49:19.580Z,89.20
2022-11-25T16:52:28.537Z,89.42
2022-11-25T16:55:38.876Z,89.44
2022-11-25T16:58:47.299Z,89.58
2022-11-25T17:01:55.852Z,89.06
2022-11-25T17:05:19.154Z,89.05
2022-11-25T17:08:27.608Z,88.85
2022-11-25T17:11:41.908Z,88.58
2022-11-25T17:14:53.303Z,89.28
2022-11-25T17:18:02.781Z,88.90
2022-11-25T17:21:16.676Z,89.11
2022-11-25T17:24:25.110Z,89.92
2022-11-25T17:27:34.444Z,90.56
2022-11-25T17:30:41.119Z,91.27
2022-11-25T17:33:52.629Z,92.20
2022-11-25T17:37:04.720Z,92.57
2022-11-25T17:40:23.258Z,92.94
2022-11-25T17:43:33.157Z,92.42
2022-11-25T17:47:07.396Z,91.82
2022-11-25T17:50:20.189Z,91.84
2022-11-25T17:53:44.584Z,91.56
2022-11-25T17:56:58.493Z,90.85
2022-11-25T18:00:10.879Z,90.64
2022-11-25T18:03:24.617Z,90.31
2022-11-25T18:06:39.825Z,90.25
2022-11-25T18:09:47.033Z,90.13
2022-11-25T18:12:56.525Z,89.49
2022-11-25T18:16:24.483Z,89.57
2022-11-25T18:19:30.111Z,89.71
2022-11-25T18:22:45.338Z,89.85
2022-11-25T18:25:54.405Z,89.72
2022-11-25T18:28:57.386Z,89.85
2022-11-25T18:32:00.598Z,89.84
2022-11-25T18:35:03.338Z,90.02
2022-11-25T18:38:06.836Z,90.07
2022-11-25T18:41:20.932Z,89.94
2022-11-25T18:44:26.554Z,90.09
2022-11-25T18:47:29.246Z,90.05
2022-11-25T18:50:32.081Z,90.16
2022-11-25T18:53:34.805Z,89.88
2022-11-25T18:56:41.149Z,89.73
2022-11-25T18:59:45.174Z,89.99
2022-11-25T19:02:47.950Z,89.54
2022-11-25T19:05:50.907Z,88.86
2022-11-25T19:08:53.560Z,88.52
2022-11-25T19:11:57.778Z,88.89
2022-11-25T19:15:00.812Z,88.87
2022-11-25T19:18:06.640Z,89.22
2022-11-25T19:21:12.340Z,89.71
2022-11-25T19:24:16.907Z,90.53
2022-11-25T19:27:24.358Z,91.33
2022-11-25T19:30:29.827Z,92.20
2022-11-25T19:33:35.174Z,93.00
2022-11-25T19:36:37.961Z,92.89
2022-11-25T19:39:40.679Z,93.14
2022-11-25T19:42:46.036Z,93.21
2022-11-25T19:45:48.738Z,92.41
2022-11-25T19:48:52.346Z,92.62
2022-11-25T19:51:56.952Z,92.64
2022-11-25T19:54:59.652Z,92.44
2022-11-25T19:58:03.877Z,92.27
2022-11-25T20:01:06.693Z,92.13
2022-11-25T20:04:16.878Z,91.99
2022-11-25T20:07:21.549Z,91.67
2022-11-25T20:10:26.337Z,91.79
2022-11-25T20:13:30.374Z,91.31
2022-11-25T20:16:36.782Z,91.51
2022-11-25T20:19:40.047Z,91.33
2022-11-25T20:22:46.707Z,91.08
2022-11-25T20:25:50.727Z,90.62
2022-11-25T20:28:54.797Z,90.69
2022-11-25T20:31:57.822Z,90.66
2022-11-25T20:35:01.142Z,90.61
2022-11-25T20:38:03.927Z,90.70
2022-11-25T20:41:07.679Z,90.92
2022-11-25T20:44:14.366Z,90.69
2022-11-25T20:47:18.933Z,90.35
2022-11-25T20:50:22.727Z,89.52
2022-11-25T20:53:25.404Z,89.61
2022-11-25T20:56:29.128Z,89.17
2022-11-25T20:59:34.378Z,88.58
2022-11-25T21:02:37.166Z,88.42
2022-11-25T21:05:40.109Z,88.06
2022-11-25T21:08:45.364Z,87.57
2022-11-25T21:11:48.245Z,88.36
2022-11-25T21:14:52.274Z,89.46
2022-11-25T21:17:54.985Z,89.63
2022-11-25T21:20:58.571Z,90.25
2022-11-25T21:24:06.762Z,91.52
2022-11-25T21:27:14.807Z,92.79
2022-11-25T21:30:20.690Z,93.40
2022-11-25T21:33:23.611Z,93.59
2022-11-25T21:36:29.772Z,93.92
2022-11-25T21:39:34.808Z,94.68
2022-11-25T21:42:38.056Z,94.17
2022-11-25T21:45:42.051Z,94.10
2022-11-25T21:48:45.175Z,94.44
2022-11-25T21:51:47.930Z,94.79
2022-11-25T21:54:50.604Z,95.31
2022-11-25T21:57:53.372Z,95.33
2022-11-25T22:00:59.461Z,94.90
2022-11-25T22:04:02.292Z,95.16
2022-11-25T22:07:04.892Z,94.24
2022-11-25T22:10:09.090Z,94.85
2022-11-25T22:13:16.476Z,94.72
2022-11-25T22:16:28.880Z,95.21
2022-11-25T22:19:32.114Z,95.59
2022-11-25T22:22:34.908Z,95.22
2022-11-25T22:25:37.611Z,96.05
2022-11-25T22:28:40.762Z,96.57
2022-11-25T22:31:45.004Z,96.96
2022-11-25T22:34:48.113Z,97.35
2022-11-25T22:37:55.202Z,97.66
2022-11-25T22:41:01.656Z,97.56
2022-11-25T22:44:04.611Z,97.54
2022-11-25T22:47:16.898Z,98.50
2022-11-25T22:50:23.004Z,98.59
2022-11-25T22:53:26.242Z,98.39
2022-11-25T22:56:29.043Z,98.63
2022-11-25T22:59:31.913Z,98.17
2022-11-25T23:02:37.055Z,99.03
2022-11-25T23:05:40.985Z,98.77
2022-11-25T23:08:43.684Z,98.87
2022-11-25T23:11:47.024Z,98.78
2022-11-25T23:14:49.876Z,99.18
2022-11-25T23:17:57.028Z,98.79
2022-11-25T23:20:59.831Z,99.14
2022-11-25T23:24:12.104Z,99.49
2022-11-25T23:27:18.902Z,99.26
2022-11-25T23:30:26.714Z,98.75
2022-11-25T23:33:39.016Z,99.05
2022-11-25T23:37:00.215Z,99.27
2022-11-25T23:40:09.873Z,99.26
2022-11-25T23:43:16.691Z,99.45
2022-11-25T23:46:26.198Z,99.61
2022-11-25T23:49:36.244Z,99.20
2022-11-25T23:52:43.054Z,98.67
2022-11-25T23:55:51.859Z,98.34
2022-11-25T23:58:57.207Z,96.98
